sensor_id;sensor_type;location;lat;lon;timestamp;pressure;altitude;pressure_sealevel;temperature;humidity
43257;BME280;28860;43.212;27.934;2023-04-07T00:01:38;100932.06;;;13.98;32.60
43257;BME280;28860;43.212;27.934;2023-04-07T00:04:03;100926.03;;;14.08;32.41
43257;BME280;28860;43.212;27.934;2023-04-07T00:06:29;100913.75;;;13.91;32.44
43257;BME280;28860;43.212;27.934;2023-04-07T00:08:55;100897.94;;;13.86;32.43
43257;BME280;28860;43.212;27.934;2023-04-07T00:11:20;100917.41;;;13.90;32.25
43257;BME280;28860;43.212;27.934;2023-04-07T00:13:46;100914.06;;;13.99;32.43
43257;BME280;28860;43.212;27.934;2023-04-07T00:16:12;100926.47;;;14.14;32.34
43257;BME280;28860;43.212;27.934;2023-04-07T00:18:38;100899.28;;;14.05;32.23
43257;BME280;28860;43.212;27.934;2023-04-07T00:21:03;100922.56;;;14.19;32.20
43257;BME280;28860;43.212;27.934;2023-04-07T00:23:29;100931.81;;;14.27;32.33
43257;BME280;28860;43.212;27.934;2023-04-07T00:25:56;100931.16;;;14.37;32.43
43257;BME280;28860;43.212;27.934;2023-04-07T00:28:21;100940.97;;;14.38;32.18
43257;BME280;28860;43.212;27.934;2023-04-07T00:30:47;100913.72;;;14.17;32.62
43257;BME280;28860;43.212;27.934;2023-04-07T00:33:12;100908.97;;;14.20;32.71
43257;BME280;28860;43.212;27.934;2023-04-07T00:35:38;100918.56;;;14.24;33.01
43257;BME280;28860;43.212;27.934;2023-04-07T00:38:04;100918.88;;;14.33;32.73
43257;BME280;28860;43.212;27.934;2023-04-07T00:40:30;100926.00;;;14.21;32.72
43257;BME280;28860;43.212;27.934;2023-04-07T00:42:56;100925.16;;;14.07;32.45
43257;BME280;28860;43.212;27.934;2023-04-07T00:45:21;100907.38;;;14.05;32.51
43257;BME280;28860;43.212;27.934;2023-04-07T00:47:47;100926.03;;;14.08;31.91
43257;BME280;28860;43.212;27.934;2023-04-07T00:50:12;100923.91;;;13.87;31.66
43257;BME280;28860;43.212;27.934;2023-04-07T00:52:41;100918.09;;;13.80;31.84
43257;BME280;28860;43.212;27.934;2023-04-07T00:55:07;100924.34;;;13.94;31.60
43257;BME280;28860;43.212;27.934;2023-04-07T00:57:33;100925.63;;;13.88;31.37
43257;BME280;28860;43.212;27.934;2023-04-07T00:59:59;100932.75;;;13.89;31.33
43257;BME280;28860;43.212;27.934;2023-04-07T01:05:54;100916.56;;;13.89;31.11
43257;BME280;28860;43.212;27.934;2023-04-07T01:11:22;100911.81;;;13.80;30.97
43257;BME280;28860;43.212;27.934;2023-04-07T01:13:50;100925.81;;;13.85;31.11
43257;BME280;28860;43.212;27.934;2023-04-07T01:16:27;100922.25;;;13.97;31.09
43257;BME280;28860;43.212;27.934;2023-04-07T01:18:58;100930.13;;;14.00;30.96
43257;BME280;28860;43.212;27.934;2023-04-07T01:21:27;100942.03;;;13.72;31.34
43257;BME280;28860;43.212;27.934;2023-04-07T01:26:43;100939.09;;;13.62;31.17
43257;BME280;28860;43.212;27.934;2023-04-07T01:29:33;100935.97;;;13.94;31.38
43257;BME280;28860;43.212;27.934;2023-04-07T01:32:03;100928.34;;;13.88;31.41
43257;BME280;28860;43.212;27.934;2023-04-07T01:34:31;100910.09;;;13.53;31.42
43257;BME280;28860;43.212;27.934;2023-04-07T01:36:58;100954.22;;;13.78;31.54
43257;BME280;28860;43.212;27.934;2023-04-07T01:39:26;100926.47;;;13.63;31.26
43257;BME280;28860;43.212;27.934;2023-04-07T01:41:53;100922.84;;;13.77;31.27
43257;BME280;28860;43.212;27.934;2023-04-07T01:44:20;100931.03;;;13.88;31.51
43257;BME280;28860;43.212;27.934;2023-04-07T01:46:47;100930.25;;;13.73;31.12
43257;BME280;28860;43.212;27.934;2023-04-07T01:49:15;100928.09;;;13.91;30.94
43257;BME280;28860;43.212;27.934;2023-04-07T01:51:41;100922.38;;;13.83;31.02
43257;BME280;28860;43.212;27.934;2023-04-07T01:54:07;100915.03;;;13.85;30.89
43257;BME280;28860;43.212;27.934;2023-04-07T01:56:33;100924.22;;;13.95;31.07
43257;BME280;28860;43.212;27.934;2023-04-07T01:58:59;100919.78;;;13.94;31.28
43257;BME280;28860;43.212;27.934;2023-04-07T02:01:25;100923.91;;;13.87;31.25
43257;BME280;28860;43.212;27.934;2023-04-07T02:04:01;100908.16;;;13.81;31.41
43257;BME280;28860;43.212;27.934;2023-04-07T02:06:43;100906.22;;;13.83;31.05
43257;BME280;28860;43.212;27.934;2023-04-07T02:09:10;100914.09;;;13.86;31.46
43257;BME280;28860;43.212;27.934;2023-04-07T02:11:39;100918.94;;;13.94;31.06
43257;BME280;28860;43.212;27.934;2023-04-07T02:14:06;100912.69;;;13.93;30.86
43257;BME280;28860;43.212;27.934;2023-04-07T02:16:33;100925.81;;;13.85;30.89
43257;BME280;28860;43.212;27.934;2023-04-07T02:18:59;100930.16;;;13.75;31.09
43257;BME280;28860;43.212;27.934;2023-04-07T02:21:27;100904.38;;;13.70;30.79
43257;BME280;28860;43.212;27.934;2023-04-07T02:23:55;100921.22;;;13.61;30.79
43257;BME280;28860;43.212;27.934;2023-04-07T02:26:21;100920.25;;;13.49;31.25
43257;BME280;28860;43.212;27.934;2023-04-07T02:28:46;100930.59;;;13.81;30.88
43257;BME280;28860;43.212;27.934;2023-04-07T02:31:12;100922.84;;;13.77;30.95
43257;BME280;28860;43.212;27.934;2023-04-07T02:33:38;100938.34;;;13.73;nan
43257;BME280;28860;43.212;27.934;2023-04-07T02:36:04;100934.25;;;13.67;30.82
43257;BME280;28860;43.212;27.934;2023-04-07T02:38:31;100941.81;;;13.88;30.62
43257;BME280;28860;43.212;27.934;2023-04-07T02:40:57;100946.56;;;13.71;30.70
43257;BME280;28860;43.212;27.934;2023-04-07T02:43:23;100944.50;;;13.88;30.61
43257;BME280;28860;43.212;27.934;2023-04-07T02:45:50;100951.69;;;14.00;30.72
43257;BME280;28860;43.212;27.934;2023-04-07T02:48:15;100949.34;;;13.83;30.87
43257;BME280;28860;43.212;27.934;2023-04-07T02:50:41;100958.41;;;13.82;30.90
43257;BME280;28860;43.212;27.934;2023-04-07T02:53:07;100943.31;;;13.66;31.03
43257;BME280;28860;43.212;27.934;2023-04-07T02:55:32;100936.41;;;13.62;31.23
43257;BME280;28860;43.212;27.934;2023-04-07T02:57:58;100941.06;;;13.60;31.20
43257;BME280;28860;43.212;27.934;2023-04-07T03:00:24;100964.66;;;13.69;31.09
43257;BME280;28860;43.212;27.934;2023-04-07T03:02:50;100951.22;;;13.42;31.51
43257;BME280;28860;43.212;27.934;2023-04-07T03:05:16;100958.13;;;13.33;31.79
43257;BME280;28860;43.212;27.934;2023-04-07T03:07:41;100965.94;;;13.51;31.57
43257;BME280;28860;43.212;27.934;2023-04-07T03:10:07;100944.16;;;13.54;31.75
43257;BME280;28860;43.212;27.934;2023-04-07T03:12:33;100955.16;;;13.51;32.25
43257;BME280;28860;43.212;27.934;2023-04-07T03:14:59;100965.09;;;13.63;32.04
43257;BME280;28860;43.212;27.934;2023-04-07T03:17:24;100964.78;;;13.40;32.36
43257;BME280;28860;43.212;27.934;2023-04-07T03:19:50;100968.09;;;13.46;32.15
43257;BME280;28860;43.212;27.934;2023-04-07T03:22:16;100969.06;;;13.17;32.51
43257;BME280;28860;43.212;27.934;2023-04-07T03:24:42;100971.66;;;13.19;32.54
43257;BME280;28860;43.212;27.934;2023-04-07T03:27:08;100955.41;;;13.33;31.90
43257;BME280;28860;43.212;27.934;2023-04-07T03:29:33;100981.25;;;13.50;31.73
43257;BME280;28860;43.212;27.934;2023-04-07T03:31:59;100965.09;;;13.50;31.85
43257;BME280;28860;43.212;27.934;2023-04-07T03:34:25;100983.41;;;13.71;31.84
43257;BME280;28860;43.212;27.934;2023-04-07T03:36:51;100953.88;;;13.43;31.26
43257;BME280;28860;43.212;27.934;2023-04-07T03:39:16;100989.66;;;13.58;31.21
43257;BME280;28860;43.212;27.934;2023-04-07T03:41:42;100978.22;;;13.55;31.12
43257;BME280;28860;43.212;27.934;2023-04-07T03:44:07;100979.31;;;13.65;31.18
43257;BME280;28860;43.212;27.934;2023-04-07T03:47:17;100983.53;;;13.29;30.56
43257;BME280;28860;43.212;27.934;2023-04-07T04:00:55;101020.19;;;13.04;31.29
43257;BME280;28860;43.212;27.934;2023-04-07T04:03:21;101026.81;;;13.26;30.95
43257;BME280;28860;43.212;27.934;2023-04-07T04:05:46;101031.63;;;13.08;31.08
43257;BME280;28860;43.212;27.934;2023-04-07T04:08:12;101014.75;;;13.19;31.06
43257;BME280;28860;43.212;27.934;2023-04-07T04:10:37;101022.56;;;13.36;30.77
43257;BME280;28860;43.212;27.934;2023-04-07T04:13:03;101036.00;;;13.51;30.89
43257;BME280;28860;43.212;27.934;2023-04-07T04:15:31;101033.84;;;13.56;30.42
43257;BME280;28860;43.212;27.934;2023-04-07T04:17:56;101043.38;;;13.75;30.48
43257;BME280;28860;43.212;27.934;2023-04-07T04:20:22;101031.28;;;13.67;30.39
43257;BME280;28860;43.212;27.934;2023-04-07T04:22:48;101017.59;;;13.30;30.73
43257;BME280;28860;43.212;27.934;2023-04-07T04:25:15;101040.34;;;13.66;30.57
43257;BME280;28860;43.212;27.934;2023-04-07T04:27:40;101036.09;;;13.22;30.43
43257;BME280;28860;43.212;27.934;2023-04-07T04:30:09;101025.56;;;13.31;30.48
43257;BME280;28860;43.212;27.934;2023-04-07T04:32:37;101039.97;;;13.45;30.40
43257;BME280;28860;43.212;27.934;2023-04-07T04:35:04;101040.56;;;13.63;30.40
43257;BME280;28860;43.212;27.934;2023-04-07T04:37:30;101043.38;;;13.75;30.17
43257;BME280;28860;43.212;27.934;2023-04-07T04:39:56;101053.50;;;13.58;30.44
43257;BME280;28860;43.212;27.934;2023-04-07T04:42:22;101063.00;;;13.77;30.17
43257;BME280;28860;43.212;27.934;2023-04-07T04:44:47;101043.31;;;13.49;29.81
43257;BME280;28860;43.212;27.934;2023-04-07T04:47:13;101047.44;;;13.27;30.41
43257;BME280;28860;43.212;27.934;2023-04-07T04:49:38;101035.78;;;13.54;30.25
43257;BME280;28860;43.212;27.934;2023-04-07T04:52:04;101068.47;;;13.62;30.24
43257;BME280;28860;43.212;27.934;2023-04-07T04:54:32;101058.34;;;13.38;30.46
43257;BME280;28860;43.212;27.934;2023-04-07T04:56:58;101057.56;;;13.36;30.37
43257;BME280;28860;43.212;27.934;2023-04-07T04:59:23;101054.09;;;13.49;30.26
43257;BME280;28860;43.212;27.934;2023-04-07T05:01:51;101061.78;;;13.40;30.24
43257;BME280;28860;43.212;27.934;2023-04-07T05:04:16;101077.53;;;13.61;30.12
43257;BME280;28860;43.212;27.934;2023-04-07T05:06:43;101070.84;;;13.39;30.32
43257;BME280;28860;43.212;27.934;2023-04-07T05:09:08;101046.84;;;12.94;30.61
43257;BME280;28860;43.212;27.934;2023-04-07T05:11:37;101067.72;;;13.18;30.71
43257;BME280;28860;43.212;27.934;2023-04-07T05:14:04;101065.38;;;13.13;30.78
43257;BME280;28860;43.212;27.934;2023-04-07T05:16:31;101059.34;;;13.23;30.18
43257;BME280;28860;43.212;27.934;2023-04-07T05:18:58;101052.38;;;13.20;30.38
43257;BME280;28860;43.212;27.934;2023-04-07T05:21:29;101075.25;;;13.40;30.42
43257;BME280;28860;43.212;27.934;2023-04-07T05:23:54;101093.41;;;13.79;29.86
43257;BME280;28860;43.212;27.934;2023-04-07T05:26:20;101077.09;;;13.67;30.10
43257;BME280;28860;43.212;27.934;2023-04-07T05:28:46;101081.13;;;13.47;30.08
43257;BME280;28860;43.212;27.934;2023-04-07T05:31:12;101080.38;;;13.72;30.25
43257;BME280;28860;43.212;27.934;2023-04-07T05:33:37;101101.09;;;13.44;30.40
43257;BME280;28860;43.212;27.934;2023-04-07T05:36:03;101070.25;;;13.49;30.03
43257;BME280;28860;43.212;27.934;2023-04-07T05:38:29;101090.78;;;13.64;30.02
43257;BME280;28860;43.212;27.934;2023-04-07T05:40:55;101063.63;;;13.67;29.77
43257;BME280;28860;43.212;27.934;2023-04-07T05:43:20;101087.94;;;13.53;30.18
43257;BME280;28860;43.212;27.934;2023-04-07T05:45:46;101088.53;;;13.58;30.21
43257;BME280;28860;43.212;27.934;2023-04-07T05:48:12;101082.78;;;13.50;30.04
43257;BME280;28860;43.212;27.934;2023-04-07T05:50:37;101093.41;;;13.79;29.80
43257;BME280;28860;43.212;27.934;2023-04-07T05:53:03;101108.91;;;13.62;30.10
43257;BME280;28860;43.212;27.934;2023-04-07T05:55:28;101109.59;;;13.79;30.12
43257;BME280;28860;43.212;27.934;2023-04-07T05:57:54;101089.66;;;13.81;29.63
43257;BME280;28860;43.212;27.934;2023-04-07T06:00:19;101095.81;;;13.83;29.33
43257;BME280;28860;43.212;27.934;2023-04-07T06:02:45;101109.84;;;13.89;29.45
43257;BME280;28860;43.212;27.934;2023-04-07T06:05:11;101099.28;;;13.98;29.48
43257;BME280;28860;43.212;27.934;2023-04-07T06:07:40;101117.19;;;13.99;29.33
43257;BME280;28860;43.212;27.934;2023-04-07T06:10:07;101118.94;;;14.13;29.18
43257;BME280;28860;43.212;27.934;2023-04-07T06:12:33;101112.59;;;13.74;29.54
43257;BME280;28860;43.212;27.934;2023-04-07T06:14:58;101097.09;;;13.78;29.57
43257;BME280;28860;43.212;27.934;2023-04-07T06:17:24;101116.78;;;14.06;29.41
43257;BME280;28860;43.212;27.934;2023-04-07T06:19:50;101126.88;;;13.89;29.63
43257;BME280;28860;43.212;27.934;2023-04-07T06:22:16;101123.28;;;14.16;29.60
43257;BME280;28860;43.212;27.934;2023-04-07T06:24:41;101124.34;;;14.26;29.08
43257;BME280;28860;43.212;27.934;2023-04-07T06:27:07;101127.91;;;14.27;29.13
43257;BME280;28860;43.212;27.934;2023-04-07T06:29:33;101107.31;;;14.39;29.09
43257;BME280;28860;43.212;27.934;2023-04-07T06:32:01;101119.72;;;14.41;29.30
43257;BME280;28860;43.212;27.934;2023-04-07T06:34:27;101117.47;;;14.48;29.32
43257;BME280;28860;43.212;27.934;2023-04-07T06:36:52;101130.63;;;14.53;28.89
43257;BME280;28860;43.212;27.934;2023-04-07T06:39:18;101126.94;;;14.67;28.88
43257;BME280;28860;43.212;27.934;2023-04-07T06:41:44;101123.81;;;14.47;29.40
43257;BME280;28860;43.212;27.934;2023-04-07T06:44:11;101107.06;;;14.68;28.91
43257;BME280;28860;43.212;27.934;2023-04-07T06:46:37;101127.69;;;14.43;28.97
43257;BME280;28860;43.212;27.934;2023-04-07T06:49:03;101124.91;;;14.32;29.20
43257;BME280;28860;43.212;27.934;2023-04-07T06:51:29;101142.59;;;14.62;29.01
43257;BME280;28860;43.212;27.934;2023-04-07T06:53:56;101124.25;;;14.67;28.36
43257;BME280;28860;43.212;27.934;2023-04-07T06:56:22;101138.16;;;14.22;28.86
43257;BME280;28860;43.212;27.934;2023-04-07T06:58:47;101133.19;;;14.15;29.24
43257;BME280;28860;43.212;27.934;2023-04-07T07:01:13;101136.16;;;14.77;28.64
43257;BME280;28860;43.212;27.934;2023-04-07T07:03:39;101138.16;;;14.86;28.51
43257;BME280;28860;43.212;27.934;2023-04-07T07:06:06;101131.66;;;15.02;27.94
43257;BME280;28860;43.212;27.934;2023-04-07T07:08:34;101142.72;;;14.73;28.36
43257;BME280;28860;43.212;27.934;2023-04-07T07:11:00;101151.97;;;14.17;28.35
43257;BME280;28860;43.212;27.934;2023-04-07T07:13:27;101124.56;;;14.49;28.02
43257;BME280;28860;43.212;27.934;2023-04-07T07:15:53;101156.00;;;14.89;28.02
43257;BME280;28860;43.212;27.934;2023-04-07T07:18:19;101139.69;;;14.65;28.13
43257;BME280;28860;43.212;27.934;2023-04-07T07:20:48;101135.56;;;14.98;27.66
43257;BME280;28860;43.212;27.934;2023-04-07T07:23:23;101125.22;;;14.66;27.74
43257;BME280;28860;43.212;27.934;2023-04-07T07:25:52;101139.28;;;14.45;27.65
43257;BME280;28860;43.212;27.934;2023-04-07T07:28:18;101114.63;;;14.89;27.01
43257;BME280;28860;43.212;27.934;2023-04-07T07:30:48;101137.97;;;15.27;26.64
43257;BME280;28860;43.212;27.934;2023-04-07T07:33:15;101138.50;;;15.32;26.39
43257;BME280;28860;43.212;27.934;2023-04-07T07:35:51;101123.69;;;14.88;26.62
43257;BME280;28860;43.212;27.934;2023-04-07T07:38:18;101136.59;;;15.21;26.66
43257;BME280;28860;43.212;27.934;2023-04-07T07:40:48;101149.91;;;15.49;26.44
43257;BME280;28860;43.212;27.934;2023-04-07T07:43:20;101168.13;;;15.58;26.31
43257;BME280;28860;43.212;27.934;2023-04-07T07:45:51;101178.28;;;15.30;26.72
43257;BME280;28860;43.212;27.934;2023-04-07T07:48:20;101148.28;;;15.22;26.39
43257;BME280;28860;43.212;27.934;2023-04-07T07:50:46;101161.91;;;15.45;26.13
43257;BME280;28860;43.212;27.934;2023-04-07T07:53:16;101166.56;;;15.42;26.11
43257;BME280;28860;43.212;27.934;2023-04-07T07:55:41;101166.13;;;15.49;26.20
43257;BME280;28860;43.212;27.934;2023-04-07T07:58:13;101164.03;;;15.28;26.72
43257;BME280;28860;43.212;27.934;2023-04-07T08:00:53;101164.00;;;15.65;26.60
43257;BME280;28860;43.212;27.934;2023-04-07T08:03:20;101173.19;;;15.87;26.23
43257;BME280;28860;43.212;27.934;2023-04-07T08:05:50;101167.63;;;16.02;25.61
43257;BME280;28860;43.212;27.934;2023-04-07T08:08:16;101168.38;;;15.92;25.29
43257;BME280;28860;43.212;27.934;2023-04-07T08:10:46;101168.56;;;15.89;25.22
43257;BME280;28860;43.212;27.934;2023-04-07T08:13:18;101169.78;;;15.48;25.66
43257;BME280;28860;43.212;27.934;2023-04-07T08:15:51;101167.88;;;15.37;25.68
43257;BME280;28860;43.212;27.934;2023-04-07T08:18:17;101173.47;;;15.47;25.73
43257;BME280;28860;43.212;27.934;2023-04-07T08:20:45;101176.91;;;15.62;25.85
43257;BME280;28860;43.212;27.934;2023-04-07T08:23:14;101183.97;;;15.76;25.37
43257;BME280;28860;43.212;27.934;2023-04-07T08:25:42;101169.69;;;15.74;24.98
43257;BME280;28860;43.212;27.934;2023-04-07T08:28:11;101181.63;;;15.71;25.42
43257;BME280;28860;43.212;27.934;2023-04-07T08:30:47;101179.44;;;15.76;25.30
43257;BME280;28860;43.212;27.934;2023-04-07T08:33:13;101162.94;;;15.92;25.01
43257;BME280;28860;43.212;27.934;2023-04-07T08:35:41;101147.56;;;15.93;24.94
43257;BME280;28860;43.212;27.934;2023-04-07T08:38:08;101164.69;;;15.93;25.32
43257;BME280;28860;43.212;27.934;2023-04-07T08:40:34;101186.72;;;16.00;24.91
43257;BME280;28860;43.212;27.934;2023-04-07T08:43:07;101189.13;;;16.27;24.85
43257;BME280;28860;43.212;27.934;2023-04-07T08:45:33;101175.47;;;16.29;24.68
43257;BME280;28860;43.212;27.934;2023-04-07T08:48:08;101170.88;;;16.18;24.82
43257;BME280;28860;43.212;27.934;2023-04-07T08:50:45;101195.00;;;16.21;24.97
43257;BME280;28860;43.212;27.934;2023-04-07T08:53:17;101184.78;;;15.89;25.02
43257;BME280;28860;43.212;27.934;2023-04-07T08:55:44;101196.81;;;16.09;24.92
43257;BME280;28860;43.212;27.934;2023-04-07T08:58:10;101198.13;;;15.92;25.17
43257;BME280;28860;43.212;27.934;2023-04-07T09:00:39;101198.63;;;15.97;24.96
43257;BME280;28860;43.212;27.934;2023-04-07T09:03:10;101187.03;;;15.71;25.40
43257;BME280;28860;43.212;27.934;2023-04-07T09:05:40;101178.34;;;16.03;25.34
43257;BME280;28860;43.212;27.934;2023-04-07T09:08:08;101182.69;;;16.17;25.37
43257;BME280;28860;43.212;27.934;2023-04-07T09:10:38;101190.25;;;16.01;25.23
43257;BME280;28860;43.212;27.934;2023-04-07T09:13:07;101210.25;;;16.11;25.28
43257;BME280;28860;43.212;27.934;2023-04-07T09:15:33;101199.00;;;15.80;25.61
43257;BME280;28860;43.212;27.934;2023-04-07T09:17:59;101197.75;;;15.97;25.47
43257;BME280;28860;43.212;27.934;2023-04-07T09:20:25;101207.59;;;16.22;25.44
43257;BME280;28860;43.212;27.934;2023-04-07T09:22:58;101209.59;;;16.43;25.70
43257;BME280;28860;43.212;27.934;2023-04-07T09:25:30;101209.53;;;15.96;25.54
43257;BME280;28860;43.212;27.934;2023-04-07T09:28:07;101216.84;;;16.07;25.82
43257;BME280;28860;43.212;27.934;2023-04-07T09:30:33;101215.00;;;15.83;25.72
43257;BME280;28860;43.212;27.934;2023-04-07T09:32:59;101207.22;;;15.78;25.95
43257;BME280;28860;43.212;27.934;2023-04-07T09:35:25;101213.13;;;15.96;25.88
43257;BME280;28860;43.212;27.934;2023-04-07T09:40:28;101206.41;;;16.02;25.98
43257;BME280;28860;43.212;27.934;2023-04-07T09:42:55;101188.78;;;15.96;26.00
43257;BME280;28860;43.212;27.934;2023-04-07T09:45:29;101213.88;;;16.34;25.65
43257;BME280;28860;43.212;27.934;2023-04-07T09:47:56;101211.25;;;16.21;25.93
43257;BME280;28860;43.212;27.934;2023-04-07T09:50:38;101209.88;;;16.63;25.86
43257;BME280;28860;43.212;27.934;2023-04-07T09:53:14;101215.81;;;16.79;26.13
43257;BME280;28860;43.212;27.934;2023-04-07T09:56:01;101209.47;;;17.15;25.57
43257;BME280;28860;43.212;27.934;2023-04-07T09:58:28;101169.78;;;16.91;25.46
43257;BME280;28860;43.212;27.934;2023-04-07T10:04:29;101195.91;;;17.37;25.09
43257;BME280;28860;43.212;27.934;2023-04-07T10:11:00;101204.44;;;17.10;25.87
43257;BME280;28860;43.212;27.934;2023-04-07T10:17:23;101221.78;;;17.07;26.10
43257;BME280;28860;43.212;27.934;2023-04-07T10:26:40;101196.84;;;16.57;26.51
43257;BME280;28860;43.212;27.934;2023-04-07T12:06:01;101206.56;;;19.53;24.59
43257;BME280;28860;43.212;27.934;2023-04-07T13:00:34;101224.13;;;20.19;28.80
43257;BME280;28860;43.212;27.934;2023-04-07T13:13:42;101231.88;;;19.44;31.77
43257;BME280;28860;43.212;27.934;2023-04-07T13:21:53;101221.34;;;19.19;33.41
